Overseas Santorini — V7TB5 — position and weather

sailwx.info

Track history (hours):
 
Tides and Currents Weather Stations Pressure Air Temp Water Temp Dewpoint Dewpoint Depression Visibility Wind Speed Wind Dir Waves Ship Positions

Overseas Santorini

Last reported at 2018-Jan-21 00:58 UTC. Time now 2018-Jan-21 01:05 UTC.
Position N 44°09' E 028°39'.

Length 183 m; draft 11 m.

Type: Ship (hazmat cat A). MMSI: 538003772.

Date/timePositionNaut miles runAvg speedWind from/ knotsBaromVisibWave heightAir tempDewpointWater temp
2018-Jan-21 00:58N 44°09' E 028°39'0 0.0
2018-Jan-21 00:28N 44°09' E 028°39'0 0.0
2018-Jan-20 23:58N 44°09' E 028°39'0 0.0
2018-Jan-20 23:28N 44°09' E 028°39'0 0.0
2018-Jan-20 22:58N 44°09' E 028°39'0 0.0
2018-Jan-20 22:28N 44°09' E 028°39'0 0.0
2018-Jan-20 21:58N 44°09' E 028°39'0 0.0
2018-Jan-20 21:30N 44°09' E 028°39'0 0.0
2018-Jan-20 21:00N 44°09' E 028°39'0 0.2
2018-Jan-20 20:30N 44°09' E 028°39'1 1.0
2018-Jan-20 20:00N 44°09' E 028°40'2 3.9
2018-Jan-20 19:30N 44°07' E 028°42'3 6.1
2018-Jan-20 19:00N 44°04' E 028°44'2 3.9
2018-Jan-20 18:30N 44°03' E 028°46'3 5.6
2018-Jan-20 18:00N 44°01' E 028°48'3 6.0
2018-Jan-20 17:30N 43°58' E 028°51'4 7.1
2018-Jan-20 17:00N 43°55' E 028°51'4 7.9
2018-Jan-20 16:30N 43°51' E 028°51'4 7.6
2018-Jan-20 16:00N 43°47' E 028°51'510.1
2018-Jan-20 15:30N 43°42' E 028°52'611.2
2018-Jan-20 15:00N 43°36' E 028°52'15511.4
2018-Jan-20 01:26N 41°01' E 028°60'4 8.5
2018-Jan-20 00:57N 40°57' E 028°59'611.8
2018-Jan-20 00:24N 40°52' E 028°54'3 6.3
2018-Jan-19 23:59N 40°50' E 028°51'0 0.4
2018-Jan-19 23:28N 40°50' E 028°52'1 1.1
2018-Jan-19 22:59N 40°50' E 028°51'25910.6
2018-Jan-18 22:32N 37°59' E 024°38'010.7
2018-Jan-18 22:30N 37°59' E 024°38'510.8
2018-Jan-18 22:00N 37°53' E 024°37'510.8
2018-Jan-18 21:30N 37°48' E 024°35'511.0
2018-Jan-18 21:00N 37°43' E 024°33'611.1
2018-Jan-18 20:30N 37°38' E 024°30'510.9
2018-Jan-18 20:00N 37°33' E 024°27'611.6
2018-Jan-18 19:30N 37°29' E 024°22'611.4
2018-Jan-18 19:01N 37°24' E 024°17'510.7
2018-Jan-18 18:31N 37°20' E 024°13'510.1
2018-Jan-18 18:00N 37°17' E 024°08'5 9.9
2018-Jan-18 17:30N 37°13' E 024°04'5 9.5
2018-Jan-18 17:00N 37°09' E 024°01'5 9.1
2018-Jan-18 16:30N 37°06' E 023°57'4 8.7
2018-Jan-18 16:00N 37°03' E 023°53'4 8.4
2018-Jan-18 15:30N 36°59' E 023°51'4 8.1
2018-Jan-18 15:00N 36°55' E 023°48'10 8.3
2018-Jan-18 13:49N 36°47' E 023°43'8 8.8
2018-Jan-18 12:58N 36°40' E 023°39'  
Track history (hours):
 
Tides and Currents Weather Stations Pressure Air Temp Water Temp Dewpoint Dewpoint Depression Visibility Wind Speed Wind Dir Waves Ship Positions

Overseas Santorini

Last reported at 2018-Jan-21 00:58 UTC. Time now 2018-Jan-21 01:05 UTC.
Position N 44°09' E 028°39'.

Length 183 m; draft 11 m.

Type: Ship (hazmat cat A). MMSI: 538003772.

Date/timePositionNaut miles runAvg speedWind from/ knotsBaromVisibWave heightAir tempDewpointWater temp
2018-Jan-21 00:58N 44°09' E 028°39'0 0.0
2018-Jan-21 00:28N 44°09' E 028°39'0 0.0
2018-Jan-20 23:58N 44°09' E 028°39'0 0.0
2018-Jan-20 23:28N 44°09' E 028°39'0 0.0
2018-Jan-20 22:58N 44°09' E 028°39'0 0.0
2018-Jan-20 22:28N 44°09' E 028°39'0 0.0
2018-Jan-20 21:58N 44°09' E 028°39'0 0.0
2018-Jan-20 21:30N 44°09' E 028°39'0 0.0
2018-Jan-20 21:00N 44°09' E 028°39'0 0.2
2018-Jan-20 20:30N 44°09' E 028°39'1 1.0
2018-Jan-20 20:00N 44°09' E 028°40'2 3.9
2018-Jan-20 19:30N 44°07' E 028°42'3 6.1
2018-Jan-20 19:00N 44°04' E 028°44'2 3.9
2018-Jan-20 18:30N 44°03' E 028°46'3 5.6
2018-Jan-20 18:00N 44°01' E 028°48'3 6.0
2018-Jan-20 17:30N 43°58' E 028°51'4 7.1
2018-Jan-20 17:00N 43°55' E 028°51'4 7.9
2018-Jan-20 16:30N 43°51' E 028°51'4 7.6
2018-Jan-20 16:00N 43°47' E 028°51'510.1
2018-Jan-20 15:30N 43°42' E 028°52'611.2
2018-Jan-20 15:00N 43°36' E 028°52'15511.4
2018-Jan-20 01:26N 41°01' E 028°60'4 8.5
2018-Jan-20 00:57N 40°57' E 028°59'611.8
2018-Jan-20 00:24N 40°52' E 028°54'3 6.3
2018-Jan-19 23:59N 40°50' E 028°51'0 0.4
2018-Jan-19 23:28N 40°50' E 028°52'1 1.1
2018-Jan-19 22:59N 40°50' E 028°51'25910.6
2018-Jan-18 22:32N 37°59' E 024°38'010.7
2018-Jan-18 22:30N 37°59' E 024°38'510.8
2018-Jan-18 22:00N 37°53' E 024°37'510.8
2018-Jan-18 21:30N 37°48' E 024°35'511.0
2018-Jan-18 21:00N 37°43' E 024°33'611.1
2018-Jan-18 20:30N 37°38' E 024°30'510.9
2018-Jan-18 20:00N 37°33' E 024°27'611.6
2018-Jan-18 19:30N 37°29' E 024°22'611.4
2018-Jan-18 19:01N 37°24' E 024°17'510.7
2018-Jan-18 18:31N 37°20' E 024°13'510.1
2018-Jan-18 18:00N 37°17' E 024°08'5 9.9
2018-Jan-18 17:30N 37°13' E 024°04'5 9.5
2018-Jan-18 17:00N 37°09' E 024°01'5 9.1
2018-Jan-18 16:30N 37°06' E 023°57'4 8.7
2018-Jan-18 16:00N 37°03' E 023°53'4 8.4
2018-Jan-18 15:30N 36°59' E 023°51'4 8.1
2018-Jan-18 15:00N 36°55' E 023°48'10 8.3
2018-Jan-18 13:49N 36°47' E 023°43'8 8.8
2018-Jan-18 12:58N 36°40' E 023°39'  

Dump ship's entire track history